Flight Track Log - Related Links

Times and Time Zones

All times are in EDT time to prevent confusion due to time zone crossing. See the UCA4838 flight status page for this flight to view local times or setup timezone preferences in your user account.

Time Position Orientation Groundspeed Altitude Reporting Facility
EDT Latitude Longitude Course Direction KTS MPH feet Rate Location/Type
Wed 05:53:53 PM 42.6017 -76.4461 119° Southeast 279 321 6,300  Level New York Center
Wed 05:54:53 PM 42.6394 -76.3958 44° Northeast 239 275 7,900 864 Climbing New York Center
Wed 05:55:51 PM 42.6883 -76.3322 44° Northeast 226 260 8,000 50 Climbing New York Center
Wed 05:56:52 PM 42.7550 -76.2664 36° Northeast 236 272 8,000  Level Boston Center
Wed 05:57:52 PM 42.7864 -76.2003 57° Northeast 241 277 8,000 65 Level Boston Center
Wed 05:58:25 PM 42.8194 -76.1486 49° Northeast 260 299 8,100 600 Climbing Boston Center
Wed 05:58:52 PM 42.8394 -76.1072 57° Northeast 254 292 8,600 1,286 Climbing Boston Center
Wed 05:59:00 PM 42.2809 -75.9140 119° Southeast  Level FlightAware Approximate
Wed 05:59:07 PM 42.8506 -76.0881 52° Northeast 258 297 9,000  Level Boston Center
Wed 06:00:04 PM 42.8864 -76.0108 58° Northeast 254 292 10,000 545 Climbing Boston Center
Wed 06:01:08 PM 42.9083 -75.9044 74° East 285 328 10,100 480 Climbing Boston Center
Wed 06:02:09 PM 42.9344 -75.7981 71° East 296 341 11,000 750 Climbing Boston Center
Wed 06:02:28 PM 42.9369 -75.7839 76° East 274 315 11,100 1,063 Climbing Boston Center
Wed 06:03:28 PM 42.9694 -75.6694 69° East 274 315 12,400 1,200 Climbing Boston Center
Wed 06:04:28 PM 42.9617 -75.5725 96° East 268 308 13,500 1,200 Climbing Boston Center
Wed 06:05:28 PM 42.9431 -75.4922 108° East 245 282 14,800 1,350 Climbing Boston Center
Wed 06:06:28 PM 42.9092 -75.4367 130° Southeast 200 230 16,200 1,150 Climbing Boston Center
Wed 06:07:28 PM 42.8658 -75.4175 162° South 164 189 17,100 450 Climbing Boston Center
Wed 06:08:28 PM 42.8122 -75.3950 163° South 179 206 17,100  Level Boston Center
Wed 06:09:28 PM 42.7525 -75.3667 161° South 211 243 17,100  Level Boston Center
Wed 06:10:28 PM 42.6928 -75.3386 161° South 226 260 17,100  Level Boston Center
Wed 06:11:28 PM 42.6308 -75.3131 163° South 231 266 17,100 -273 Level Boston Center
Wed 06:12:40 PM 42.5714 -75.2708 152° Southeast 231 266 16,500 -818 Descending Boston Center
Wed 06:13:40 PM 42.4983 -75.1969 143° Southeast 247 284 15,300 -800 Descending Boston Center
Wed 06:14:40 PM 42.4369 -75.1408 146° Southeast 261 300 14,900 -200 Descending Boston Center
Wed 06:15:40 PM 42.3781 -75.0850 145° Southeast 267 307 14,900  Level Boston Center
Wed 06:16:40 PM 42.3208 -75.0347 147° Southeast 261 300 14,900  Level Boston Center
Wed 06:17:40 PM 42.2636 -74.9819 146° Southeast 255 293 14,900  Level Boston Center
Wed 06:18:40 PM 42.2064 -74.9264 144° Southeast 255 293 14,900  Level Boston Center
Wed 06:19:40 PM 42.1594 -74.8853 147° Southeast 255 293 14,900 -100 Level Boston Center
Wed 06:20:40 PM 42.0856 -74.8236 148° Southeast 255 293 14,700 -600 Descending Boston Center
Wed 06:21:40 PM 42.0203 -74.7597 144° Southeast 279 321 13,700 -1,050 Descending Boston Center
Wed 06:22:40 PM 41.9547 -74.6986 145° Southeast 290 334 12,600 -1,150 Descending Boston Center
Wed 06:23:40 PM 41.8892 -74.6406 147° Southeast 290 334 11,400 -727 Descending Boston Center
Wed 06:24:52 PM 41.8233 -74.5992 155° Southeast 279 321 11,000 -182 Descending Boston Center
Wed 06:25:52 PM 41.7442 -74.5992 180° South 246 283 11,000 -208 Level Boston Center
Wed 06:27:16 PM 41.6650 -74.5967 179° South 241 277 10,500 -708 Descending Boston Center
Wed 06:28:16 PM 41.5942 -74.5942 178° South 236 272 9,300 -1,200 Descending Boston Center
Wed 06:29:16 PM 41.5192 -74.5944 180° South 242 278 8,100 -650 Descending Boston Center
Wed 06:30:16 PM 41.4586 -74.5922 178° South 247 284 8,000 -713 Descending Boston Center
Wed 06:31:39 PM 41.3667 -74.6167 191° South 226 260 6,400 -839 Descending New York TRACON
Wed 06:32:39 PM 41.3000 -74.6333 191° South 214 246 6,000 -300 Descending New York TRACON
Wed 06:33:39 PM 41.2500 -74.6500 194° South 199 229 5,800 -500 Descending New York TRACON
Wed 06:34:39 PM 41.2000 -74.6500 180° South 200 230 5,000 -421 Descending New York TRACON
Wed 06:35:33 PM 41.1500 -74.6167 153° Southeast 221 254 5,000  Level New York TRACON
Wed 06:36:33 PM 41.1500 -74.5333 90° East 269 310 5,000  Level New York TRACON
Wed 06:37:33 PM 41.1500 -74.4333 90° East 245 282 5,000  Level New York TRACON
Wed 06:38:33 PM 41.1333 -74.3500 105° East 233 268 5,000  Level New York TRACON
Wed 06:39:33 PM 41.1333 -74.2667 90° East 229 264 5,000  Level New York TRACON
Wed 06:40:33 PM 41.0833 -74.2333 153° Southeast 186 214 5,000  Level New York TRACON
Wed 06:41:39 PM 41.0333 -74.2167 166° South 186 214 5,000 -500 Level New York TRACON
Wed 06:42:33 PM 40.9833 -74.2000 166° South 192 221 4,000 -526 Descending New York TRACON
Wed 06:43:33 PM 40.9500 -74.1333 123° Southeast 214 246 4,000 -476 Level New York TRACON
Wed 06:44:39 PM 40.9167 -74.0833 131° Southeast 206 237 3,000 -476 Descending New York TRACON
Wed 06:45:39 PM 40.8667 -74.0667 166° South 163 188 3,000 -100 Level New York TRACON
Wed 06:46:39 PM 40.8333 -74.0833 201° Southwest 162 186 2,800 -550 Descending New York TRACON
Wed 06:47:39 PM 40.7833 -74.1000 194° South 162 186 1,900 -800 Descending New York TRACON
Wed 06:48:39 PM 40.7500 -74.1333 217° Southwest 124 143 1,200 -600 Descending New York TRACON
Wed 06:49:39 PM 40.7333 -74.1500 217° Southwest 97 112 700 -500 Descending New York TRACON
Wed 06:51:00 PM 40.6925 -74.1687 199° South  Level Estimated
Wed 06:58:00 PM 40.6925 -74.1687 199° South  Level Estimated
Wed 06:59:00 PM 40.6925 -74.1687 199° South  Level Estimated

Login

Don't have an account? Register now (free) for customized features, flight alerts, and more!